Time;durP1;ratioP1;P1;durP2;ratioP2;P2;SDS_P1;SDS_P2;PMS_P1;PMS_P2;Temp;Humidity;BMP_temperature;BMP_pressure;BME280_temperature;BME280_humidity;BME280_pressure;Samples;Min_cycle;Max_cycle;Signal;HPM_P1;HPM_P2
2021/07/01 00:00:09;;;;;;;16.67;14.90;;;14.80;99.90;;;;;;4991040;28;20194;-73
2021/07/01 00:02:35;;;;;;;20.50;16.60;;;14.80;99.90;;;;;;4991250;28;20253;-73
2021/07/01 00:05:00;;;;;;;17.93;15.07;;;14.80;99.90;;;;;;4991786;28;20478;-73
2021/07/01 00:07:26;;;;;;;15.80;14.07;;;14.80;99.90;;;;;;4990788;28;20178;-73
2021/07/01 00:09:51;;;;;;;14.60;13.00;;;14.80;99.90;;;;;;4990829;28;20190;-73
2021/07/01 00:12:17;;;;;;;17.43;15.73;;;14.80;99.90;;;;;;4990052;28;20668;-73
2021/07/01 00:14:42;;;;;;;17.73;15.07;;;14.80;99.90;;;;;;4990874;28;20162;-73
2021/07/01 00:17:08;;;;;;;16.57;14.47;;;14.80;99.90;;;;;;4990959;28;20698;-73
2021/07/01 00:19:34;;;;;;;17.27;15.30;;;14.80;99.90;;;;;;4991209;28;20197;-73
2021/07/01 00:21:59;;;;;;;24.33;18.10;;;14.70;99.90;;;;;;4990875;28;20527;-73
2021/07/01 00:24:25;;;;;;;20.70;18.60;;;14.80;99.90;;;;;;4977723;28;20194;-73
2021/07/01 00:26:51;;;;;;;20.23;18.23;;;14.70;99.90;;;;;;4971317;28;20187;-73
2021/07/01 00:29:16;;;;;;;18.50;16.50;;;14.70;99.90;;;;;;4971082;28;20206;-73
2021/07/01 00:31:42;;;;;;;20.77;18.47;;;14.70;99.90;;;;;;4971577;28;20620;-73
2021/07/01 00:34:07;;;;;;;26.27;22.10;;;14.80;99.90;;;;;;4971549;28;20175;-73
2021/07/01 00:36:33;;;;;;;24.93;20.73;;;14.80;99.90;;;;;;4970952;28;20174;-73
2021/07/01 00:38:59;;;;;;;23.17;20.00;;;14.80;99.90;;;;;;4971135;28;20226;-73
2021/07/01 00:41:25;;;;;;;19.53;17.40;;;14.80;99.90;;;;;;4989646;28;20182;-73
2021/07/01 00:43:50;;;;;;;18.10;16.30;;;14.80;99.90;;;;;;4990274;28;20265;-73
2021/07/01 00:46:16;;;;;;;18.67;16.73;;;14.80;99.90;;;;;;4990787;28;20439;-73
2021/07/01 00:48:42;;;;;;;18.70;15.90;;;14.80;99.90;;;;;;4990968;28;20198;-73
2021/07/01 00:51:08;;;;;;;17.33;15.07;;;14.80;99.90;;;;;;4990408;28;20893;-73
2021/07/01 00:53:33;;;;;;;18.00;16.10;;;14.70;99.90;;;;;;4984648;28;20671;-73
2021/07/01 00:56:01;;;;;;;16.70;14.80;;;14.70;99.90;;;;;;4976973;28;20178;-73
2021/07/01 00:58:27;;;;;;;18.97;16.97;;;14.70;99.90;;;;;;4989491;28;20186;-73
2021/07/01 01:01:01;;;;;;;23.40;18.17;;;14.70;99.90;;;;;;4990636;28;20405;-73
2021/07/01 01:03:28;;;;;;;22.23;19.47;;;14.70;99.90;;;;;;4976854;28;20186;-73
2021/07/01 01:05:54;;;;;;;23.60;19.90;;;14.70;99.90;;;;;;4970626;28;20398;-73
2021/07/01 01:08:19;;;;;;;21.33;18.00;;;14.70;99.90;;;;;;4970541;28;20454;-73
2021/07/01 01:10:45;;;;;;;21.40;17.20;;;14.70;99.90;;;;;;4970568;28;20167;-73
2021/07/01 01:13:10;;;;;;;19.93;17.77;;;14.70;99.90;;;;;;4970682;28;20160;-73
2021/07/01 01:15:36;;;;;;;21.87;18.03;;;14.70;99.90;;;;;;4990973;28;20223;-73
2021/07/01 01:18:02;;;;;;;21.67;16.83;;;14.70;99.90;;;;;;4989872;28;20194;-73
2021/07/01 01:20:28;;;;;;;22.30;18.77;;;14.70;99.90;;;;;;4989873;28;20423;-73
2021/07/01 01:22:54;;;;;;;18.10;15.80;;;14.80;99.90;;;;;;4989819;28;20409;-73
2021/07/01 01:25:19;;;;;;;18.67;15.60;;;14.80;99.90;;;;;;4989662;28;20642;-73
2021/07/01 01:27:45;;;;;;;17.67;15.77;;;14.80;99.90;;;;;;4989496;28;20289;-73
2021/07/01 01:30:11;;;;;;;17.17;14.50;;;14.80;99.90;;;;;;4990411;28;20187;-73
2021/07/01 01:32:38;;;;;;;16.60;13.93;;;14.80;99.90;;;;;;4983860;28;20242;-73
2021/07/01 01:35:03;;;;;;;15.87;13.93;;;14.80;99.90;;;;;;4970268;28;20391;-73
2021/07/01 01:37:29;;;;;;;15.70;13.93;;;14.80;99.90;;;;;;4970482;28;20399;-73
2021/07/01 01:39:55;;;;;;;19.70;14.60;;;14.70;99.90;;;;;;4970223;28;20911;-73
2021/07/01 01:42:20;;;;;;;20.20;16.80;;;14.70;99.90;;;;;;4970277;28;20236;-73
2021/07/01 01:44:46;;;;;;;15.57;13.57;;;14.70;99.90;;;;;;4971029;28;20166;-73
2021/07/01 01:47:16;;;;;;;20.23;18.17;;;14.70;99.90;;;;;;4970789;28;20164;-73
2021/07/01 01:49:44;;;;;;;19.43;16.40;;;14.70;99.90;;;;;;4970190;28;20183;-73
2021/07/01 01:52:10;;;;;;;21.10;16.70;;;14.70;99.90;;;;;;4970228;28;20398;-73
2021/07/01 01:54:35;;;;;;;22.07;16.70;;;14.70;99.90;;;;;;4970611;28;20398;-73
2021/07/01 01:57:01;;;;;;;25.40;19.17;;;14.70;99.90;;;;;;4989764;28;20190;-73
2021/07/01 01:59:26;;;;;;;22.90;18.67;;;14.70;99.90;;;;;;4990063;28;20247;-73
2021/07/01 02:01:52;;;;;;;20.43;16.50;;;14.70;99.90;;;;;;4988791;28;20179;-73
2021/07/01 02:04:17;;;;;;;18.30;15.00;;;14.70;99.90;;;;;;4989384;28;20220;-73
2021/07/01 02:06:43;;;;;;;19.33;15.60;;;14.70;99.90;;;;;;4989861;28;20154;-70
2021/07/01 02:09:08;;;;;;;15.47;13.87;;;14.70;99.90;;;;;;4989245;28;20639;-70
2021/07/01 02:11:34;;;;;;;16.00;13.40;;;14.70;99.90;;;;;;4989219;28;20159;-70
2021/07/01 02:14:00;;;;;;;15.37;12.97;;;14.70;99.90;;;;;;4989513;28;20275;-70
2021/07/01 02:16:25;;;;;;;13.77;12.37;;;14.70;99.90;;;;;;4989783;28;20155;-70
2021/07/01 02:18:51;;;;;;;15.50;13.57;;;14.70;99.90;;;;;;4989421;28;20400;-70
2021/07/01 02:21:18;;;;;;;14.67;13.20;;;14.70;99.90;;;;;;4989069;28;20611;-70
2021/07/01 02:23:44;;;;;;;14.53;13.03;;;14.70;99.90;;;;;;4989165;28;20174;-70
2021/07/01 02:26:09;;;;;;;14.10;12.60;;;14.70;99.90;;;;;;4989095;28;20870;-70
2021/07/01 02:28:35;;;;;;;15.57;13.97;;;14.70;99.90;;;;;;4989366;28;20367;-70
2021/07/01 02:31:00;;;;;;;14.20;12.73;;;14.70;99.90;;;;;;4990348;28;20174;-70
2021/07/01 02:33:26;;;;;;;14.37;12.97;;;14.70;99.90;;;;;;4988338;28;20171;-70
2021/07/01 02:35:52;;;;;;;16.43;12.73;;;14.70;99.90;;;;;;4980746;28;20186;-70
2021/07/01 02:38:19;;;;;;;15.17;13.47;;;14.70;99.90;;;;;;4992245;28;20345;-70
2021/07/01 02:40:44;;;;;;;15.23;13.00;;;14.70;99.90;;;;;;4992289;28;20394;-70
2021/07/01 02:43:10;;;;;;;13.80;11.70;;;14.70;99.90;;;;;;4992131;28;20739;-70
2021/07/01 02:45:35;;;;;;;14.20;12.80;;;14.70;99.90;;;;;;4992680;28;20693;-70
2021/07/01 02:48:01;;;;;;;16.67;13.33;;;14.70;99.90;;;;;;4992178;28;20186;-70
2021/07/01 02:50:26;;;;;;;13.43;12.13;;;14.70;99.90;;;;;;4992163;28;20151;-70
2021/07/01 02:52:52;;;;;;;13.30;11.70;;;14.70;99.90;;;;;;4992098;28;20154;-70
2021/07/01 02:55:17;;;;;;;16.30;13.03;;;14.70;99.90;;;;;;4991732;28;20265;-70
2021/07/01 02:57:43;;;;;;;13.97;12.53;;;14.70;99.90;;;;;;4992358;28;20154;-70
2021/07/01 03:00:13;;;;;;;17.23;12.40;;;14.70;99.90;;;;;;4992523;28;20280;-70
2021/07/01 03:02:39;;;;;;;13.33;12.03;;;14.70;99.90;;;;;;4991378;28;20603;-69
2021/07/01 03:05:05;;;;;;;14.73;13.27;;;14.70;99.90;;;;;;4991871;28;20484;-70
2021/07/01 03:07:31;;;;;;;14.07;12.70;;;14.70;99.90;;;;;;4991974;28;20167;-70
2021/07/01 03:09:56;;;;;;;14.83;12.67;;;14.70;99.90;;;;;;4991707;28;20449;-70
2021/07/01 03:12:23;;;;;;;14.60;13.10;;;14.70;99.90;;;;;;4991956;28;20189;-70
2021/07/01 03:14:49;;;;;;;14.80;13.30;;;14.70;99.90;;;;;;4992240;28;20174;-70
2021/07/01 03:17:15;;;;;;;18.30;13.87;;;14.70;99.90;;;;;;4991761;28;20394;-70
2021/07/01 03:19:41;;;;;;;15.67;13.87;;;14.70;99.90;;;;;;4991652;28;20390;-70
2021/07/01 03:22:07;;;;;;;12.87;11.37;;;14.70;99.90;;;;;;4991814;28;20416;-70
2021/07/01 03:24:32;;;;;;;15.90;13.90;;;14.70;99.90;;;;;;4991638;28;20167;-70
2021/07/01 03:27:00;;;;;;;14.77;12.10;;;14.70;99.90;;;;;;4991536;28;20166;-70
2021/07/01 03:29:26;;;;;;;13.53;12.03;;;14.70;99.90;;;;;;4991621;28;20209;-69
2021/07/01 03:31:52;;;;;;;14.60;12.20;;;14.70;99.90;;;;;;4990780;28;20925;-69
2021/07/01 03:34:18;;;;;;;17.20;11.47;;;14.70;99.90;;;;;;4991663;28;20473;-69
2021/07/01 03:36:44;;;;;;;13.07;11.80;;;14.70;99.90;;;;;;4991416;28;20481;-70
2021/07/01 03:39:09;;;;;;;14.50;11.53;;;14.70;99.90;;;;;;4991468;28;20241;-70
2021/07/01 03:41:35;;;;;;;12.13;10.83;;;14.70;99.90;;;;;;4991697;28;20173;-69
2021/07/01 03:44:00;;;;;;;14.30;12.10;;;14.60;99.90;;;;;;4992307;28;20158;-70
2021/07/01 03:46:26;;;;;;;12.17;10.97;;;14.60;99.90;;;;;;4991196;28;20276;-70
2021/07/01 03:48:51;;;;;;;11.63;10.43;;;14.60;99.90;;;;;;4990170;28;20271;-70
2021/07/01 03:51:17;;;;;;;12.60;11.40;;;14.60;99.90;;;;;;4989286;28;20707;-70
2021/07/01 03:53:43;;;;;;;11.90;10.70;;;14.60;99.90;;;;;;4987636;28;20514;-69
2021/07/01 03:56:11;;;;;;;12.20;11.10;;;14.60;99.90;;;;;;4989333;28;20499;-70
2021/07/01 03:58:36;;;;;;;11.23;10.03;;;14.60;99.90;;;;;;4991087;28;20575;-70
2021/07/01 04:01:02;;;;;;;10.53;9.43;;;14.60;99.90;;;;;;4990382;28;20421;-70
2021/07/01 04:03:28;;;;;;;10.77;9.73;;;14.60;99.90;;;;;;4990318;28;20212;-69
2021/07/01 04:05:53;;;;;;;9.77;8.77;;;14.60;99.90;;;;;;4990289;28;20449;-69
2021/07/01 04:08:19;;;;;;;10.77;8.57;;;14.60;99.90;;;;;;4990900;28;20204;-69
2021/07/01 04:10:45;;;;;;;11.00;8.37;;;14.60;99.90;;;;;;4990999;28;20178;-69
2021/07/01 04:13:10;;;;;;;9.20;8.30;;;14.60;99.90;;;;;;4986336;28;20175;-70
2021/07/01 04:15:37;;;;;;;10.13;9.03;;;14.60;99.90;;;;;;4986091;28;20482;-70
2021/07/01 04:18:11;;;;;;;10.50;9.03;;;14.60;99.90;;;;;;4990776;28;20206;-70
2021/07/01 04:20:37;;;;;;;10.07;9.00;;;14.60;99.90;;;;;;4990494;28;20807;-70
2021/07/01 04:23:02;;;;;;;13.00;10.70;;;14.60;99.90;;;;;;4990257;28;20424;-69
2021/07/01 04:25:28;;;;;;;13.63;10.13;;;14.60;99.90;;;;;;4991936;28;20425;-69
2021/07/01 04:27:54;;;;;;;12.03;10.60;;;14.50;99.90;;;;;;4990480;28;20574;-70
2021/07/01 04:30:19;;;;;;;12.57;10.27;;;14.60;99.90;;;;;;5000434;28;20171;-70
2021/07/01 04:32:45;;;;;;;12.70;11.00;;;14.50;99.90;;;;;;4988506;28;20902;-69
2021/07/01 04:35:11;;;;;;;13.10;11.80;;;14.50;99.90;;;;;;4985124;28;20176;-69
2021/07/01 04:37:36;;;;;;;14.07;12.60;;;14.50;99.90;;;;;;4986462;28;20257;-69
2021/07/01 04:40:07;;;;;;;17.43;12.47;;;14.50;99.90;;;;;;4998635;28;20219;-69
2021/07/01 04:42:32;;;;;;;15.70;12.03;;;14.50;99.90;;;;;;4987423;28;20208;-69
2021/07/01 04:44:58;;;;;;;14.23;12.73;;;14.50;99.90;;;;;;4988163;28;20430;-69
2021/07/01 04:47:23;;;;;;;14.40;12.90;;;14.50;99.90;;;;;;4973646;28;20175;-69
2021/07/01 04:49:49;;;;;;;12.73;11.10;;;14.50;99.90;;;;;;4970748;28;20188;-69
2021/07/01 04:52:14;;;;;;;18.03;12.70;;;14.50;99.90;;;;;;4970840;28;20190;-69
2021/07/01 04:54:41;;;;;;;13.13;10.97;;;14.50;99.90;;;;;;4975847;28;20206;-69
2021/07/01 04:57:07;;;;;;;11.20;10.10;;;14.50;99.90;;;;;;4990005;28;20635;-69
2021/07/01 04:59:32;;;;;;;12.67;9.97;;;14.50;99.90;;;;;;4989340;28;20516;-69
2021/07/01 05:01:58;;;;;;;13.10;10.30;;;14.50;99.90;;;;;;4988979;28;20173;-69
2021/07/01 05:04:23;;;;;;;10.33;9.10;;;14.40;99.90;;;;;;4990042;28;20663;-69
2021/07/01 05:06:49;;;;;;;10.53;9.40;;;14.40;99.90;;;;;;4990459;28;20171;-69
2021/07/01 05:09:15;;;;;;;11.63;10.13;;;14.40;99.90;;;;;;4990608;28;20182;-69
2021/07/01 05:11:40;;;;;;;12.77;11.30;;;14.40;99.90;;;;;;4989964;28;20339;-69
2021/07/01 05:14:07;;;;;;;13.70;12.30;;;14.40;99.90;;;;;;4989564;28;20548;-70
2021/07/01 05:16:33;;;;;;;15.20;13.00;;;14.40;99.90;;;;;;4990120;28;20327;-69
2021/07/01 05:19:00;;;;;;;16.27;14.10;;;14.40;99.90;;;;;;4990002;28;20971;-69
2021/07/01 05:21:25;;;;;;;14.70;13.13;;;14.40;99.90;;;;;;4990942;28;20505;-69
2021/07/01 05:23:51;;;;;;;13.63;12.20;;;14.40;99.90;;;;;;4991258;28;20894;-70
2021/07/01 05:26:18;;;;;;;14.70;13.10;;;14.40;99.90;;;;;;4989638;28;20237;-70
2021/07/01 05:28:44;;;;;;;14.43;11.83;;;14.50;99.90;;;;;;4989482;28;20642;-69
2021/07/01 05:31:10;;;;;;;16.73;12.53;;;14.50;99.90;;;;;;4975042;28;20417;-70
2021/07/01 05:33:36;;;;;;;14.53;12.90;;;14.50;99.90;;;;;;4982509;28;20428;-69
2021/07/01 05:36:02;;;;;;;12.93;11.30;;;14.60;99.90;;;;;;4978800;28;20600;-69
2021/07/01 05:38:27;;;;;;;12.30;10.73;;;14.60;99.90;;;;;;4990554;28;20405;-70
2021/07/01 05:40:53;;;;;;;14.43;10.87;;;14.70;99.90;;;;;;4981240;28;20243;-69
2021/07/01 05:43:18;;;;;;;13.57;12.17;;;14.70;99.90;;;;;;4978704;28;20251;-70
2021/07/01 05:45:44;;;;;;;14.13;10.57;;;14.70;99.90;;;;;;4979847;28;20209;-70
2021/07/01 05:48:11;;;;;;;13.17;11.40;;;14.70;99.90;;;;;;4979661;28;20226;-69
2021/07/01 05:50:42;;;;;;;13.20;11.87;;;14.70;99.90;;;;;;4978034;28;20217;-69
2021/07/01 05:53:10;;;;;;;13.40;11.63;;;14.70;99.90;;;;;;4999827;28;20968;-69
2021/07/01 05:55:35;;;;;;;15.23;12.00;;;14.80;99.90;;;;;;4986135;28;20506;-69
2021/07/01 05:58:02;;;;;;;16.90;11.50;;;14.70;99.90;;;;;;5003610;28;20801;-69
2021/07/01 06:00:29;;;;;;;12.40;10.77;;;14.80;99.90;;;;;;4988266;28;20195;-69
2021/07/01 06:02:55;;;;;;;12.00;10.73;;;14.80;99.90;;;;;;4983625;28;20433;-69
2021/07/01 06:05:21;;;;;;;17.47;11.87;;;14.80;99.90;;;;;;4984821;28;20436;-69
2021/07/01 06:07:50;;;;;;;13.10;11.67;;;14.80;99.90;;;;;;4982509;28;20197;-69
2021/07/01 06:10:18;;;;;;;14.03;11.60;;;14.80;99.90;;;;;;4977642;28;20249;-69
2021/07/01 06:12:44;;;;;;;12.83;10.97;;;14.80;99.90;;;;;;4990106;28;20475;-69
2021/07/01 06:15:10;;;;;;;14.63;13.10;;;14.80;99.90;;;;;;4986259;28;20441;-69
2021/07/01 06:17:37;;;;;;;12.47;10.80;;;14.80;99.90;;;;;;4998322;28;20425;-69
2021/07/01 06:20:06;;;;;;;16.20;12.50;;;14.80;99.90;;;;;;4988314;28;20523;-69
2021/07/01 06:22:32;;;;;;;14.47;12.17;;;14.70;99.90;;;;;;4992738;28;20782;-69
2021/07/01 06:24:58;;;;;;;16.13;12.37;;;14.80;99.90;;;;;;4989422;28;21054;-69
2021/07/01 06:27:33;;;;;;;12.83;11.03;;;14.80;99.90;;;;;;4995395;28;20436;-70
2021/07/01 06:30:03;;;;;;;13.50;11.97;;;14.80;99.90;;;;;;4986440;28;20547;-70
2021/07/01 06:32:34;;;;;;;17.90;11.20;;;14.80;99.90;;;;;;4986942;28;20442;-69
2021/07/01 06:34:59;;;;;;;13.00;9.80;;;14.90;99.90;;;;;;4988436;28;20443;-70
2021/07/01 06:37:29;;;;;;;19.40;12.13;;;14.90;99.90;;;;;;4983531;28;20959;-70
2021/07/01 06:39:57;;;;;;;11.70;10.10;;;14.90;99.90;;;;;;4983520;28;20174;-69
2021/07/01 06:42:23;;;;;;;13.80;10.90;;;14.90;99.90;;;;;;4979032;28;20936;-69
2021/07/01 06:44:50;;;;;;;13.03;11.10;;;15.00;99.90;;;;;;4992014;28;20467;-70
2021/07/01 06:47:16;;;;;;;13.10;10.40;;;15.00;99.90;;;;;;4984460;28;20438;-70
2021/07/01 06:49:44;;;;;;;12.20;10.40;;;15.00;99.90;;;;;;4984914;28;20496;-70
2021/07/01 06:52:13;;;;;;;12.33;10.93;;;15.00;99.90;;;;;;4981103;28;20467;-69
2021/07/01 06:54:40;;;;;;;17.30;13.23;;;15.00;99.90;;;;;;4980620;28;20439;-70
2021/07/01 06:57:06;;;;;;;18.13;12.30;;;15.00;99.90;;;;;;4998963;28;20441;-69
2021/07/01 06:59:31;;;;;;;15.83;13.00;;;15.00;99.90;;;;;;4982221;28;20468;-69
2021/07/01 07:01:58;;;;;;;15.23;12.47;;;15.00;99.90;;;;;;4981037;28;20536;-69
2021/07/01 07:04:24;;;;;;;17.03;13.00;;;15.00;99.90;;;;;;4984287;28;20232;-70
2021/07/01 07:06:50;;;;;;;15.73;12.40;;;15.00;99.90;;;;;;4981217;28;20439;-70
2021/07/01 07:09:16;;;;;;;17.30;13.73;;;15.00;99.90;;;;;;4985587;28;20453;-70
2021/07/01 07:11:43;;;;;;;18.63;13.63;;;15.00;99.90;;;;;;4982655;28;20217;-70
2021/07/01 07:14:09;;;;;;;14.60;12.90;;;15.00;99.90;;;;;;4981926;28;20442;-69
2021/07/01 07:16:41;;;;;;;21.00;14.07;;;15.00;99.90;;;;;;4986674;28;20430;-69
2021/07/01 07:19:09;;;;;;;14.40;12.90;;;15.10;99.90;;;;;;4992946;28;20442;-70
2021/07/01 07:21:43;;;;;;;18.20;12.97;;;15.10;99.90;;;;;;4986492;28;20479;-70
2021/07/01 07:24:09;;;;;;;18.57;15.00;;;15.10;99.90;;;;;;4987300;28;20440;-70
2021/07/01 07:26:36;;;;;;;15.80;12.70;;;15.10;99.90;;;;;;4984342;28;21112;-70
2021/07/01 07:29:02;;;;;;;18.87;14.03;;;15.10;99.90;;;;;;4983357;28;20304;-70
2021/07/01 07:31:30;;;;;;;15.10;13.43;;;15.10;99.90;;;;;;4985875;28;20543;-70
2021/07/01 07:33:57;;;;;;;14.63;13.13;;;15.10;99.90;;;;;;4981377;28;20170;-70
2021/07/01 07:36:25;;;;;;;14.80;12.90;;;15.10;99.90;;;;;;4982510;28;20445;-69
2021/07/01 07:38:52;;;;;;;16.30;12.40;;;15.10;99.90;;;;;;4999938;28;20872;-70
2021/07/01 07:41:18;;;;;;;15.90;12.30;;;15.10;99.90;;;;;;4985326;28;20950;-70
2021/07/01 07:43:45;;;;;;;16.80;13.90;;;15.10;99.90;;;;;;4982088;28;20444;-70
2021/07/01 07:46:10;;;;;;;16.40;13.13;;;15.20;99.90;;;;;;4984122;28;20433;-70
2021/07/01 07:48:38;;;;;;;18.13;14.60;;;15.20;99.90;;;;;;4980664;28;20468;-70
2021/07/01 07:51:05;;;;;;;17.47;13.20;;;15.30;99.90;;;;;;4981127;28;20442;-70
2021/07/01 07:53:33;;;;;;;18.73;13.03;;;15.20;99.90;;;;;;4982119;28;20429;-70
2021/07/01 07:56:03;;;;;;;19.83;13.60;;;15.30;99.90;;;;;;5005719;28;20433;-70
2021/07/01 07:58:31;;;;;;;19.47;12.83;;;15.30;99.90;;;;;;4988735;28;20457;-70
2021/07/01 08:01:00;;;;;;;21.13;12.33;;;15.40;99.90;;;;;;4985944;28;20439;-70
2021/07/01 08:03:30;;;;;;;17.83;12.50;;;15.40;99.90;;;;;;4984637;28;20444;-70
2021/07/01 08:05:57;;;;;;;18.70;13.40;;;15.40;99.90;;;;;;4985959;28;20437;-69
2021/07/01 08:08:24;;;;;;;17.90;13.40;;;15.50;99.90;;;;;;4982747;28;20468;-69
2021/07/01 08:10:51;;;;;;;13.30;11.90;;;15.60;99.90;;;;;;4981771;28;20822;-69
2021/07/01 08:13:20;;;;;;;17.97;12.50;;;15.60;99.90;;;;;;4983258;28;20520;-70
2021/07/01 08:15:46;;;;;;;16.97;11.13;;;15.60;99.90;;;;;;4984290;28;20433;-69
2021/07/01 08:18:24;;;;;;;16.40;11.70;;;15.60;99.90;;;;;;4986793;28;20512;-70
2021/07/01 08:20:50;;;;;;;15.40;12.67;;;15.60;99.90;;;;;;4982150;28;20518;-70
2021/07/01 08:23:18;;;;;;;19.67;13.10;;;15.60;99.90;;;;;;4982736;28;20433;-69
2021/07/01 08:25:44;;;;;;;20.23;13.83;;;15.60;99.90;;;;;;4984020;28;20430;-69
2021/07/01 08:28:10;;;;;;;17.73;13.63;;;15.60;99.90;;;;;;4982064;28;20445;-70
2021/07/01 08:30:36;;;;;;;18.47;13.43;;;15.60;99.90;;;;;;4982244;28;20476;-70
2021/07/01 08:33:02;;;;;;;19.47;13.93;;;15.60;99.90;;;;;;4980581;28;20750;-70
2021/07/01 08:35:29;;;;;;;18.20;13.07;;;15.60;99.90;;;;;;4979406;28;20596;-70
2021/07/01 08:37:58;;;;;;;24.67;15.73;;;15.60;99.90;;;;;;4980073;28;20440;-70
2021/07/01 08:40:32;;;;;;;14.57;12.27;;;15.60;99.90;;;;;;4980725;28;20429;-69
2021/07/01 08:42:59;;;;;;;23.10;12.53;;;15.60;99.90;;;;;;4980897;28;20436;-70
2021/07/01 08:48:22;;;;;;;15.60;11.10;;;15.60;99.90;;;;;;5061971;27;20929;-70
2021/07/01 08:50:54;;;;;;;14.40;12.30;;;15.60;99.90;;;;;;5072245;28;20429;-69
2021/07/01 08:56:16;;;;;;;14.60;12.43;;;15.50;99.90;;;;;;5051772;28;20528;-70
2021/07/01 08:58:47;;;;;;;18.67;11.70;;;15.50;99.90;;;;;;5048223;28;20499;-68
2021/07/01 09:01:17;;;;;;;18.00;11.87;;;15.50;99.90;;;;;;5047257;28;20458;-67
2021/07/01 09:03:44;;;;;;;13.90;11.23;;;15.50;99.90;;;;;;5048940;28;20617;-68
2021/07/01 09:06:22;;;;;;;14.00;12.60;;;15.60;99.90;;;;;;5047203;28;21009;-67
2021/07/01 09:08:49;;;;;;;17.00;12.70;;;15.60;99.90;;;;;;5046406;28;20937;-67
2021/07/01 09:11:18;;;;;;;14.23;12.30;;;15.60;99.90;;;;;;5047523;28;20457;-67
2021/07/01 09:13:48;;;;;;;14.27;11.40;;;15.60;99.90;;;;;;5048899;28;20435;-68
2021/07/01 09:16:15;;;;;;;15.40;12.80;;;15.60;99.90;;;;;;5044897;28;20431;-68
2021/07/01 09:18:41;;;;;;;14.13;12.73;;;15.60;99.90;;;;;;5047241;28;20442;-68
2021/07/01 09:21:07;;;;;;;14.30;12.10;;;15.60;99.90;;;;;;5048373;28;20441;-67
2021/07/01 09:23:34;;;;;;;13.30;11.80;;;15.60;99.90;;;;;;5050318;28;20449;-67
2021/07/01 09:26:01;;;;;;;22.37;11.63;;;15.50;99.90;;;;;;5050746;28;20176;-67
2021/07/01 09:28:27;;;;;;;15.53;12.10;;;15.60;99.90;;;;;;5041587;28;20434;-67
2021/07/01 09:30:54;;;;;;;17.37;13.30;;;15.50;99.90;;;;;;5048324;28;20767;-67
2021/07/01 09:33:20;;;;;;;21.07;17.60;;;15.50;99.90;;;;;;5049101;28;20563;-67
2021/07/01 09:35:46;;;;;;;22.13;14.53;;;15.50;99.90;;;;;;5047011;28;20809;-67
2021/07/01 09:38:14;;;;;;;15.40;11.53;;;15.50;99.90;;;;;;5046081;28;20432;-67
2021/07/01 09:40:40;;;;;;;13.50;11.87;;;15.50;99.90;;;;;;5042857;28;20510;-67
2021/07/01 09:43:07;;;;;;;19.43;14.80;;;15.50;99.90;;;;;;5049492;28;20418;-67
2021/07/01 09:45:35;;;;;;;17.80;12.97;;;15.50;99.90;;;;;;5046743;28;20457;-70
2021/07/01 09:48:07;;;;;;;14.50;12.00;;;15.40;99.90;;;;;;5038856;28;20426;-70
2021/07/01 09:50:35;;;;;;;13.53;12.13;;;15.40;99.90;;;;;;5046447;28;20526;-70
2021/07/01 09:53:03;;;;;;;18.70;13.40;;;15.50;99.90;;;;;;5045643;28;20443;-70
2021/07/01 09:55:31;;;;;;;16.90;12.83;;;15.50;99.90;;;;;;5046927;28;20462;-70
2021/07/01 09:58:06;;;;;;;13.17;11.80;;;15.50;99.90;;;;;;5047868;28;20431;-70
2021/07/01 10:00:32;;;;;;;19.93;12.97;;;15.50;99.90;;;;;;5044782;28;20446;-70
2021/07/01 10:03:07;;;;;;;17.03;10.40;;;15.50;99.90;;;;;;5045204;28;20449;-70
2021/07/01 10:05:33;;;;;;;13.50;11.03;;;15.50;99.90;;;;;;5037348;28;20175;-70
2021/07/01 10:07:59;;;;;;;10.80;9.70;;;15.50;99.90;;;;;;5029856;28;20434;-70
2021/07/01 10:10:25;;;;;;;11.40;9.07;;;15.50;99.90;;;;;;5029226;28;20431;-70
2021/07/01 10:12:59;;;;;;;12.30;10.70;;;15.50;99.90;;;;;;5030474;28;20742;-71
2021/07/01 10:20:46;;;;;;;13.90;10.27;;;15.50;99.90;;;;;;5061054;28;20604;-70
2021/07/01 10:26:08;;;;;;;13.93;10.60;;;15.60;99.90;;;;;;5067336;28;20544;-69
2021/07/01 10:28:34;;;;;;;15.33;9.53;;;15.60;99.90;;;;;;5064241;28;20473;-69
2021/07/01 10:31:11;;;;;;;12.30;8.97;;;15.60;99.90;;;;;;5065720;28;20431;-69
2021/07/01 10:33:40;;;;;;;11.00;9.90;;;15.60;99.90;;;;;;5066711;28;20496;-70
2021/07/01 10:36:13;;;;;;;11.20;9.30;;;15.60;99.90;;;;;;5060825;28;20434;-70
2021/07/01 10:38:55;;;;;;;16.20;9.60;;;15.60;99.90;;;;;;5055135;28;20427;-69
2021/07/01 10:41:41;;;;;;;11.80;9.03;;;15.60;99.90;;;;;;5058944;28;20430;-70
2021/07/01 10:44:22;;;;;;;14.93;9.17;;;15.60;99.90;;;;;;5057003;28;20449;-70
2021/07/01 10:46:48;;;;;;;9.77;8.50;;;15.60;99.90;;;;;;5064016;28;20532;-70
2021/07/01 10:49:15;;;;;;;12.10;9.27;;;15.60;99.90;;;;;;5059165;28;20422;-69
2021/07/01 10:51:58;;;;;;;15.13;9.10;;;15.60;99.90;;;;;;5057019;28;20458;-69
2021/07/01 10:54:24;;;;;;;14.90;9.60;;;15.60;99.90;;;;;;5058354;28;20424;-69
2021/07/01 10:56:54;;;;;;;12.73;8.97;;;15.60;99.90;;;;;;5065840;28;20425;-69
2021/07/01 10:59:19;;;;;;;15.83;9.60;;;15.60;99.90;;;;;;5051365;28;20835;-70
2021/07/01 11:01:49;;;;;;;12.60;9.43;;;15.60;99.90;;;;;;5050879;28;20512;-69
2021/07/01 11:04:18;;;;;;;12.50;10.70;;;15.60;99.90;;;;;;5049566;28;20204;-69
2021/07/01 11:06:55;;;;;;;14.37;11.07;;;15.70;99.90;;;;;;5046571;28;20959;-69
2021/07/01 11:09:21;;;;;;;14.03;9.40;;;15.70;99.90;;;;;;5048442;28;20429;-69
2021/07/01 11:11:46;;;;;;;14.10;9.00;;;15.70;99.90;;;;;;5057458;28;20430;-69
2021/07/01 11:14:14;;;;;;;11.80;9.03;;;15.70;99.90;;;;;;5055818;28;20180;-69
2021/07/01 11:16:43;;;;;;;16.23;10.07;;;15.80;99.90;;;;;;5052703;28;20176;-70
2021/07/01 11:19:10;;;;;;;12.50;10.87;;;15.80;99.90;;;;;;5051010;28;20668;-70
2021/07/01 11:21:43;;;;;;;14.10;9.37;;;15.80;99.90;;;;;;5052100;28;20435;-69
2021/07/01 11:29:46;;;;;;;18.03;10.87;;;15.90;99.90;;;;;;5059077;28;20560;-69
2021/07/01 11:32:21;;;;;;;12.93;9.93;;;15.90;99.90;;;;;;5058442;28;20435;-69
2021/07/01 11:34:49;;;;;;;13.57;10.57;;;16.00;99.90;;;;;;5059640;28;20843;-69
2021/07/01 11:37:16;;;;;;;14.00;10.57;;;16.00;99.90;;;;;;5061826;28;21408;-69
2021/07/01 11:39:42;;;;;;;10.80;9.70;;;16.10;99.90;;;;;;5063164;28;20513;-69
2021/07/01 11:42:08;;;;;;;19.93;10.50;;;16.10;99.90;;;;;;5059734;28;20516;-69
2021/07/01 11:44:36;;;;;;;14.10;11.30;;;16.10;99.90;;;;;;5059898;28;20799;-69
2021/07/01 11:47:04;;;;;;;15.43;11.37;;;16.10;99.90;;;;;;5059703;28;20191;-69
2021/07/01 11:49:32;;;;;;;11.23;9.77;;;16.10;99.90;;;;;;5055952;28;20431;-69
2021/07/01 11:51:59;;;;;;;15.93;10.97;;;16.10;99.90;;;;;;5058439;28;20934;-69
2021/07/01 11:54:25;;;;;;;19.10;11.20;;;16.10;99.90;;;;;;5058293;28;20435;-69
2021/07/01 11:56:56;;;;;;;15.27;11.03;;;16.10;99.90;;;;;;5061340;28;20489;-69
2021/07/01 11:59:27;;;;;;;13.90;10.80;;;16.00;99.90;;;;;;5056214;28;20775;-69
2021/07/01 12:01:53;;;;;;;15.50;10.90;;;16.00;99.90;;;;;;5060532;28;20453;-69
2021/07/01 12:04:30;;;;;;;16.57;11.10;;;16.00;99.90;;;;;;5059403;28;20425;-69
2021/07/01 12:07:05;;;;;;;14.37;10.70;;;16.10;99.90;;;;;;5058635;28;20441;-69
2021/07/01 12:09:33;;;;;;;13.33;11.93;;;16.10;99.90;;;;;;5056004;28;20897;-69
2021/07/01 12:14:49;;;;;;;17.57;12.93;;;16.10;99.90;;;;;;5043708;28;20580;-69
2021/07/01 12:25:54;;;;;;;15.00;12.90;;;16.10;99.90;;;;;;5077389;28;20539;-70
2021/07/01 12:28:24;;;;;;;15.30;12.40;;;16.10;99.90;;;;;;5060071;28;20463;-70
2021/07/01 12:30:57;;;;;;;14.53;12.97;;;16.10;99.90;;;;;;5059940;28;20497;-70
2021/07/01 12:36:27;;;;;;;12.07;10.97;;;16.10;99.90;;;;;;5101670;27;20533;-69
2021/07/01 12:41:56;;;;;;;13.43;10.00;;;16.10;99.90;;;;;;5100168;27;20574;-69
2021/07/01 12:47:28;;;;;;;11.63;9.40;;;16.00;99.90;;;;;;5137161;27;20532;-69
2021/07/01 12:49:57;;;;;;;11.03;9.50;;;15.90;99.90;;;;;;5117549;27;20457;-69
2021/07/01 12:52:31;;;;;;;10.67;9.53;;;15.90;99.90;;;;;;5117944;27;20427;-69
2021/07/01 12:54:58;;;;;;;8.90;8.00;;;15.90;99.90;;;;;;5116970;27;20420;-69
2021/07/01 12:57:24;;;;;;;15.20;10.07;;;15.90;99.90;;;;;;5114882;27;20444;-69
2021/07/01 12:59:51;;;;;;;11.80;10.60;;;15.90;99.90;;;;;;5114243;28;22603;-69
2021/07/01 13:02:27;;;;;;;12.50;10.50;;;15.90;99.90;;;;;;5119501;28;20488;-69
2021/07/01 13:04:55;;;;;;;10.83;9.73;;;16.00;99.90;;;;;;5109715;28;20975;-69
2021/07/01 13:07:24;;;;;;;9.57;8.63;;;16.00;99.90;;;;;;5115838;28;20426;-69